Ushuaia, Argentina

8:48 AM ART on July 04, 2015 (GMT -0300)
Gaucho Rivero | | Change Station
CLOSE
Current Station
Personal Weather Station
Location: Ushuaia, TIERRA DEL FUEGO
Elevation: 203 ft
Nearby Weather Stations

Elev 203 ft 54.82 °S, 68.33 °W | Updated 17 minutes ago

Snow
Snow
31.8 °F
Feels Like 32 °F
N
0.0
Wind Variable Wind from North
Gusts 1.0 mph

Today
High -- | Low -- °F
--% Chance of Precip.
Yesterday
High -- | Low -- °F
Precip. -- in
9:56 AM 5:18 PM
Waning Gibbous, 93% visible
Pressure 29.71 in
Visibility 2.5 miles
Clouds Overcast 900 ft
Windchill 32 °F
Dew Point 28 °F
Humidity 84%
Rainfall 0.00 in
Snow Depth Not available.
UV 0.0 out of 12
Pollen Not available.
Air Quality Not available.
Flu Activity Not available.
METAR SAWH 041100Z 00000KT 4000 SN OVC009 M01/M01 Q1006

More Conditions Fewer Conditions

Pressure 29.71 in
Visibility 2.5 miles
Clouds Overcast 900 ft
Windchill 32 °F
Dew Point 28 °F
Humidity 84%
Rainfall 0.00 in
Snow Depth Not available.
UV 0.0 out of 12
Pollen Not available.
Air Quality Not available.
Flu Activity Not available.
METAR SAWH 041100Z 00000KT 4000 SN OVC009 M01/M01 Q1006

More Conditions Fewer Conditions

10-Day Weather Forecast

×

Almanac

Astronomy

Jul. 04, 2015 Rise Set
Actual Time
Civil Twilight
Nautical Twilight
Astronomical Twilight
Moon
Length of Visible Light
Length of Day
Tomorrow will be .
, % of the Moon is Illuminated

Today's Extremes

Country Highs Country Lows

Community

WunderPhotos

Upload Photos

1,834,939 photos uploaded!

WunderBlogs® & News

Nearby

Air Quality

  Air Quality AQ Index Pollutant
Not available.

Snow Depth

Station Depth Elevation

Earthquake Activity

City Distance Mag. Time & Date
Minimum magnitude displayed is 2.5.

Coastal Water Temperatures

Place Temperature

Stations

Nearby Weather Stations

Station Location Temp. Windchill Dew Point Humidity Wind Precip. Elev Updated Type